Time;durP1;ratioP1;P1;durP2;ratioP2;P2;SDS_P1;SDS_P2;PMS_P1;PMS_P2;Temp;Humidity;BMP_temperature;BMP_pressure;BME280_temperature;BME280_humidity;BME280_pressure;Samples;Min_cycle;Max_cycle;Signal;HPM_P1;HPM_P2
2022/02/26 00:01:35;;;;;;;23.65;11.40;;;;;;;;;;4997944;28;20034;-81
2022/02/26 00:04:01;;;;;;;19.90;10.90;;;;;;;;;;4993643;28;20057;-79
2022/02/26 00:06:27;;;;;;;18.60;10.55;;;1.90;99.90;;;;;;4991666;28;20081;-81
2022/02/26 00:08:53;;;;;;;23.73;11.80;;;1.90;99.90;;;;;;5004076;28;20030;-83
2022/02/26 00:11:22;;;;;;;22.65;12.10;;;1.90;99.90;;;;;;4998973;28;20450;-79
2022/02/26 00:13:47;;;;;;;23.85;11.80;;;3.10;99.90;;;;;;4994674;28;20410;-82
2022/02/26 00:16:13;;;;;;;23.98;10.75;;;1.80;99.90;;;;;;5010152;28;20027;-83
2022/02/26 00:18:40;;;;;;;20.75;10.88;;;1.80;99.90;;;;;;4992146;28;20057;-83
2022/02/26 00:21:05;;;;;;;21.65;10.98;;;1.90;99.90;;;;;;5007018;28;20105;-82
2022/02/26 00:23:31;;;;;;;23.92;11.55;;;2.20;99.90;;;;;;5015973;28;20023;-82
2022/02/26 00:25:57;;;;;;;21.02;11.98;;;;;;;;;;4992463;28;20038;-83
2022/02/26 00:28:23;;;;;;;21.85;11.77;;;1.90;99.90;;;;;;4991838;28;20462;-80
2022/02/26 00:30:50;;;;;;;22.10;12.25;;;;;;;;;;5014117;28;20083;-83
2022/02/26 00:33:16;;;;;;;25.33;12.77;;;;;;;;;;4997867;28;20031;-81
2022/02/26 00:35:42;;;;;;;23.27;12.85;;;1.80;99.90;;;;;;4999580;28;20022;-81
2022/02/26 00:38:08;;;;;;;24.80;13.07;;;1.80;99.90;;;;;;5000414;28;20038;-81
2022/02/26 00:40:34;;;;;;;28.00;12.02;;;1.80;99.90;;;;;;4996055;28;20077;-78
2022/02/26 00:43:00;;;;;;;23.65;11.82;;;1.70;99.90;;;;;;5009701;28;20061;-79
2022/02/26 00:45:26;;;;;;;24.00;11.70;;;1.70;99.90;;;;;;5021118;28;20034;-86
2022/02/26 00:47:52;;;;;;;23.15;12.43;;;1.70;99.90;;;;;;5010338;28;20125;-82
2022/02/26 00:50:18;;;;;;;19.40;11.50;;;1.70;99.90;;;;;;5004509;28;20056;-82
2022/02/26 00:52:44;;;;;;;25.20;12.07;;;1.70;99.90;;;;;;5006793;28;20014;-79
2022/02/26 00:55:10;;;;;;;24.88;12.23;;;1.70;99.90;;;;;;4995742;28;20030;-80
2022/02/26 00:57:36;;;;;;;20.25;10.93;;;;;;;;;;5004035;28;20022;-84
2022/02/26 01:00:06;;;;;;;23.80;11.35;;;1.70;99.90;;;;;;4998043;28;20034;-82
2022/02/26 01:02:32;;;;;;;22.30;10.73;;;1.70;99.90;;;;;;4996459;28;20026;-81
2022/02/26 01:04:58;;;;;;;23.00;11.00;;;1.70;99.90;;;;;;4993911;28;20578;-81
2022/02/26 01:07:23;;;;;;;19.95;11.35;;;1.70;99.90;;;;;;4995764;28;20018;-81
2022/02/26 01:09:49;;;;;;;26.95;11.82;;;1.60;99.90;;;;;;5015000;28;20026;-80
2022/02/26 01:12:15;;;;;;;19.33;11.40;;;1.50;99.90;;;;;;5001195;28;20033;-79
2022/02/26 01:14:41;;;;;;;21.67;11.60;;;1.50;99.90;;;;;;5002428;28;20030;-81
2022/02/26 01:17:09;;;;;;;19.83;10.85;;;1.50;99.90;;;;;;4997056;28;20113;-79
2022/02/26 01:19:35;;;;;;;23.77;11.88;;;1.50;99.90;;;;;;4995121;28;20035;-83
2022/02/26 01:22:01;;;;;;;22.40;11.10;;;;;;;;;;4996524;28;20134;-80
2022/02/26 01:24:27;;;;;;;21.27;11.02;;;1.50;99.90;;;;;;5001213;28;20054;-82
2022/02/26 01:26:53;;;;;;;22.98;11.70;;;;;;;;;;5016478;28;20034;-81
2022/02/26 01:29:19;;;;;;;23.63;11.73;;;;;;;;;;4986489;28;20026;-80
2022/02/26 01:31:45;;;;;;;19.05;11.20;;;;;;;;;;4995349;28;20034;-80
2022/02/26 01:34:11;;;;;;;19.08;10.35;;;1.50;99.90;;;;;;4993543;28;20038;-80
2022/02/26 01:36:37;;;;;;;22.77;10.98;;;;;;;;;;5001139;28;20034;-81
2022/02/26 01:39:06;;;;;;;21.13;11.43;;;1.40;99.90;;;;;;4999742;28;20026;-81
2022/02/26 01:41:32;;;;;;;22.67;12.38;;;;;;;;;;5007829;28;20082;-82
2022/02/26 01:43:59;;;;;;;26.08;12.23;;;1.40;99.90;;;;;;4993386;28;20027;-81
2022/02/26 01:46:25;;;;;;;23.75;11.57;;;1.80;99.90;;;;;;5015886;28;20026;-80
2022/02/26 01:48:51;;;;;;;23.70;12.80;;;1.30;99.90;;;;;;4998004;28;20076;-80
2022/02/26 01:51:18;;;;;;;21.95;11.50;;;1.30;99.90;;;;;;5001414;28;20026;-80
2022/02/26 01:53:44;;;;;;;22.40;11.50;;;1.30;99.90;;;;;;5017665;28;20022;-81
2022/02/26 01:56:10;;;;;;;21.83;11.80;;;1.40;99.90;;;;;;5013793;28;20026;-83
2022/02/26 01:58:37;;;;;;;23.45;11.27;;;1.40;99.90;;;;;;5002285;28;20091;-82
2022/02/26 02:01:04;;;;;;;24.23;12.23;;;1.50;99.90;;;;;;5016595;28;20019;-82
2022/02/26 02:03:30;;;;;;;22.98;11.38;;;1.40;99.90;;;;;;4989709;28;20027;-81
2022/02/26 02:05:55;;;;;;;27.88;12.90;;;1.40;99.90;;;;;;5001639;28;20118;-84
2022/02/26 02:08:21;;;;;;;35.72;14.40;;;1.40;99.90;;;;;;5010319;28;20033;-80
2022/02/26 02:10:50;;;;;;;38.78;15.50;;;1.40;99.90;;;;;;4998523;28;20100;-79
2022/02/26 02:13:16;;;;;;;71.88;15.32;;;1.30;99.90;;;;;;5001458;28;20030;-80
2022/02/26 02:15:42;;;;;;;102.38;17.48;;;1.30;99.90;;;;;;4997748;28;20068;-80
2022/02/26 02:18:11;;;;;;;53.92;16.27;;;1.20;99.90;;;;;;5000454;28;20026;-80
2022/02/26 02:20:38;;;;;;;46.95;16.42;;;1.30;99.90;;;;;;5008313;28;20113;-83
2022/02/26 02:23:04;;;;;;;70.45;18.40;;;3.10;99.90;;;;;;4994986;28;20027;-81
2022/02/26 02:25:32;;;;;;;75.68;18.08;;;1.90;99.90;;;;;;4993425;28;20030;-80
2022/02/26 02:27:59;;;;;;;63.15;16.13;;;4.20;99.90;;;;;;5003509;28;20034;-82
2022/02/26 02:30:27;;;;;;;50.15;16.75;;;1.20;99.90;;;;;;4999821;28;20037;-80
2022/02/26 02:32:54;;;;;;;74.05;17.17;;;1.40;99.90;;;;;;4996069;28;20117;-79
2022/02/26 02:35:35;;;;;;;61.45;15.45;;;1.20;99.90;;;;;;5000090;28;20026;-83
2022/02/26 02:38:04;;;;;;;51.80;16.08;;;1.30;99.90;;;;;;4993508;28;20058;-80
2022/02/26 02:40:30;;;;;;;59.90;16.58;;;1.30;99.90;;;;;;4992720;28;20031;-82
2022/02/26 02:42:56;;;;;;;49.20;16.77;;;1.30;99.90;;;;;;4996994;28;20042;-79
2022/02/26 02:45:23;;;;;;;51.33;17.35;;;1.30;99.90;;;;;;5009569;28;20038;-80
2022/02/26 02:47:49;;;;;;;47.17;16.27;;;;;;;;;;5003351;28;20030;-80
2022/02/26 02:50:16;;;;;;;41.08;17.02;;;1.70;99.90;;;;;;5000472;28;20109;-80
2022/02/26 02:52:47;;;;;;;181.50;21.10;;;2.60;99.90;;;;;;4985245;28;20090;-80
2022/02/26 02:55:14;;;;;;;59.05;16.40;;;1.30;99.90;;;;;;5001624;28;20073;-83
2022/02/26 02:57:44;;;;;;;34.58;15.60;;;1.40;99.90;;;;;;5003650;28;20373;-81
2022/02/26 03:00:12;;;;;;;37.13;15.55;;;1.40;99.90;;;;;;5001445;28;20033;-80
2022/02/26 03:02:38;;;;;;;53.25;17.77;;;1.30;99.90;;;;;;4997159;28;20023;-82
2022/02/26 03:05:04;;;;;;;45.90;16.35;;;1.30;99.90;;;;;;4989390;28;20077;-80
2022/02/26 03:07:30;;;;;;;34.58;17.08;;;1.40;99.90;;;;;;4998199;28;20022;-80
2022/02/26 03:09:56;;;;;;;35.80;16.17;;;1.40;99.90;;;;;;5024671;28;20433;-82
2022/02/26 03:12:22;;;;;;;40.92;16.58;;;1.40;99.90;;;;;;5014061;28;20533;-81
2022/02/26 03:14:48;;;;;;;46.33;16.05;;;1.40;99.90;;;;;;5003522;28;20022;-82
2022/02/26 03:17:13;;;;;;;40.05;16.63;;;-0.40;99.90;;;;;;5002275;28;20049;-81
2022/02/26 03:19:39;;;;;;;33.70;16.02;;;1.80;99.90;;;;;;4993083;28;20031;-79
2022/02/26 03:22:06;;;;;;;33.05;16.30;;;;;;;;;;5004586;28;20033;-80
2022/02/26 03:24:32;;;;;;;41.92;16.63;;;1.40;99.90;;;;;;4996052;28;20037;-82
2022/02/26 03:26:58;;;;;;;37.20;16.13;;;1.40;99.90;;;;;;5001930;28;20511;-82
2022/02/26 03:29:25;;;;;;;35.33;15.05;;;1.50;99.90;;;;;;5009279;28;20034;-82
2022/02/26 03:31:51;;;;;;;40.03;16.17;;;1.50;99.90;;;;;;5003698;28;20078;-81
2022/02/26 03:34:19;;;;;;;49.38;16.77;;;1.50;99.90;;;;;;4998197;28;20102;-82
2022/02/26 03:36:45;;;;;;;38.40;15.70;;;;;;;;;;4995826;28;20035;-79
2022/02/26 03:39:11;;;;;;;35.88;15.95;;;1.50;99.90;;;;;;5015200;28;20053;-82
2022/02/26 03:41:37;;;;;;;45.45;15.88;;;;;;;;;;5005426;28;20027;-80
2022/02/26 03:44:03;;;;;;;40.28;15.30;;;1.50;99.90;;;;;;5019706;28;20434;-83
2022/02/26 03:46:29;;;;;;;48.20;15.48;;;1.50;99.90;;;;;;4996753;28;20034;-79
2022/02/26 03:48:55;;;;;;;35.30;14.82;;;1.40;99.90;;;;;;4997716;28;20019;-82
2022/02/26 03:51:21;;;;;;;33.33;14.77;;;1.40;99.90;;;;;;5002549;28;20038;-79
2022/02/26 03:53:46;;;;;;;34.85;16.25;;;3.10;99.90;;;;;;5002318;28;20094;-80
2022/02/26 03:56:12;;;;;;;33.38;14.75;;;2.10;99.90;;;;;;5004353;28;20065;-81
2022/02/26 03:58:38;;;;;;;31.95;14.90;;;1.50;99.90;;;;;;5017891;28;20023;-80
2022/02/26 04:01:04;;;;;;;30.30;15.73;;;1.50;99.90;;;;;;4997004;28;20027;-82
2022/02/26 04:03:30;;;;;;;40.35;15.43;;;;;;;;;;4986651;28;20027;-81
2022/02/26 04:05:55;;;;;;;40.63;16.45;;;1.50;99.90;;;;;;4998024;28;20111;-84
2022/02/26 04:08:21;;;;;;;36.65;16.10;;;0.20;99.90;;;;;;4988821;28;20534;-80
2022/02/26 04:10:47;;;;;;;35.85;15.63;;;1.30;99.90;;;;;;5019075;28;20050;-79
2022/02/26 04:13:12;;;;;;;31.30;14.57;;;3.00;99.90;;;;;;5006594;28;20023;-83
2022/02/26 04:15:38;;;;;;;32.45;15.48;;;2.90;99.90;;;;;;4997844;28;20434;-80
2022/02/26 04:18:04;;;;;;;29.08;13.93;;;1.20;99.90;;;;;;5000979;28;20073;-80
2022/02/26 04:20:30;;;;;;;27.20;14.23;;;1.50;99.90;;;;;;4991999;28;20049;-81
2022/02/26 04:22:55;;;;;;;36.92;15.65;;;1.20;99.90;;;;;;5008937;28;20018;-79
2022/02/26 04:25:21;;;;;;;34.33;15.18;;;1.20;99.90;;;;;;4997585;28;20022;-80
2022/02/26 04:27:47;;;;;;;28.55;14.52;;;;;;;;;;4997214;28;20018;-83
2022/02/26 04:30:13;;;;;;;30.45;14.80;;;1.30;99.90;;;;;;5000853;28;20033;-81
2022/02/26 04:32:40;;;;;;;32.72;14.82;;;2.00;99.90;;;;;;4995354;28;20457;-83
2022/02/26 04:35:06;;;;;;;32.80;14.82;;;1.30;99.90;;;;;;4999344;28;20023;-79
2022/02/26 04:37:32;;;;;;;33.60;15.65;;;1.30;99.90;;;;;;5003989;28;20056;-79
2022/02/26 04:39:59;;;;;;;34.95;14.35;;;;;;;;;;4986781;28;20031;-80
2022/02/26 04:42:25;;;;;;;29.98;13.90;;;1.40;99.90;;;;;;5005612;28;20019;-78
2022/02/26 04:44:50;;;;;;;34.55;15.00;;;2.40;99.90;;;;;;5012424;23;20486;-81
2022/02/26 04:47:16;;;;;;;30.25;14.80;;;0.90;99.90;;;;;;5006341;28;20096;-80
2022/02/26 04:49:42;;;;;;;30.40;15.40;;;1.40;99.90;;;;;;5007906;28;20033;-82
2022/02/26 04:52:08;;;;;;;33.00;15.23;;;1.10;99.90;;;;;;5023098;28;20120;-83
2022/02/26 04:54:34;;;;;;;30.55;14.57;;;4.10;99.90;;;;;;5004466;28;20072;-83
2022/02/26 04:57:00;;;;;;;27.75;14.20;;;;;;;;;;5021130;28;20026;-80
2022/02/26 04:59:26;;;;;;;31.52;15.05;;;1.50;99.90;;;;;;5006685;28;20502;-81
2022/02/26 05:01:52;;;;;;;29.10;14.65;;;2.20;99.90;;;;;;5023842;28;20033;-83
2022/02/26 05:04:18;;;;;;;26.65;14.25;;;;;;;;;;5019825;28;20022;-80
2022/02/26 05:06:43;;;;;;;26.60;13.45;;;1.70;99.90;;;;;;5005415;28;20034;-80
2022/02/26 05:09:09;;;;;;;29.27;13.40;;;1.70;99.90;;;;;;5021726;28;20041;-81
2022/02/26 05:11:35;;;;;;;30.40;14.48;;;;;;;;;;5017771;28;20065;-79
2022/02/26 05:14:01;;;;;;;23.88;13.38;;;1.70;99.90;;;;;;5015654;28;20034;-79
2022/02/26 05:16:27;;;;;;;26.75;13.23;;;1.70;99.90;;;;;;5021483;28;20040;-79
2022/02/26 05:18:53;;;;;;;28.30;14.13;;;;;;;;;;5004780;28;20030;-80
2022/02/26 05:21:19;;;;;;;30.13;14.05;;;;;;;;;;5022061;28;20298;-79
2022/02/26 05:23:45;;;;;;;30.90;14.57;;;;;;;;;;5003397;28;20032;-80
2022/02/26 05:26:12;;;;;;;33.25;14.25;;;1.60;99.90;;;;;;4997723;28;20040;-79
2022/02/26 05:28:38;;;;;;;24.85;12.50;;;1.60;99.90;;;;;;5002994;28;20033;-83
2022/02/26 05:31:04;;;;;;;30.55;13.80;;;1.60;99.90;;;;;;5004551;28;20123;-81
2022/02/26 05:33:30;;;;;;;25.02;12.50;;;1.50;99.90;;;;;;5015913;28;20026;-81
2022/02/26 05:35:56;;;;;;;28.42;14.40;;;;;;;;;;4999727;28;20033;-81
2022/02/26 05:38:22;;;;;;;26.52;12.82;;;;;;;;;;5001798;28;20033;-82
2022/02/26 05:40:48;;;;;;;25.73;13.00;;;;;;;;;;5020296;28;20026;-83
2022/02/26 05:43:14;;;;;;;24.58;12.32;;;;;;;;;;5019439;28;20479;-80
2022/02/26 05:45:41;;;;;;;27.60;12.27;;;;;;;;;;5017196;28;20042;-81
2022/02/26 05:48:07;;;;;;;23.58;12.15;;;1.60;99.90;;;;;;5004692;28;20026;-81
2022/02/26 05:50:33;;;;;;;25.60;12.48;;;2.10;99.90;;;;;;5004960;28;20089;-81
2022/02/26 05:52:59;;;;;;;23.40;12.57;;;1.50;99.90;;;;;;5022310;28;20084;-83
2022/02/26 05:55:25;;;;;;;24.05;12.88;;;1.60;99.90;;;;;;5020084;28;20030;-80
2022/02/26 05:57:50;;;;;;;26.20;12.77;;;1.50;99.90;;;;;;5003322;28;20029;-81
2022/02/26 06:00:16;;;;;;;26.15;13.10;;;1.60;99.90;;;;;;5020553;28;20124;-81
2022/02/26 06:02:42;;;;;;;28.38;13.80;;;4.40;99.90;;;;;;5001011;28;20040;-81
2022/02/26 06:05:08;;;;;;;26.15;12.27;;;1.70;99.90;;;;;;4998887;28;20018;-82
2022/02/26 06:07:34;;;;;;;25.00;13.30;;;1.70;99.90;;;;;;5002451;28;20097;-79
2022/02/26 06:09:59;;;;;;;26.05;12.73;;;1.70;99.90;;;;;;5003170;28;20479;-80
2022/02/26 06:12:25;;;;;;;26.70;12.77;;;1.70;99.90;;;;;;5027576;28;20040;-82
2022/02/26 06:14:51;;;;;;;26.98;12.57;;;1.60;99.90;;;;;;5000964;28;20026;-80
2022/02/26 06:17:17;;;;;;;24.95;12.68;;;;;;;;;;4995165;28;20117;-79
2022/02/26 06:19:43;;;;;;;26.33;13.15;;;1.60;99.90;;;;;;5003491;28;20037;-78
2022/02/26 06:22:09;;;;;;;23.60;12.63;;;1.60;99.90;;;;;;5004235;28;20191;-79
2022/02/26 06:24:35;;;;;;;27.25;12.80;;;1.60;99.90;;;;;;5003824;28;20030;-80
2022/02/26 06:27:01;;;;;;;23.77;12.48;;;1.70;99.90;;;;;;5017420;28;20077;-80
2022/02/26 06:29:26;;;;;;;30.08;13.50;;;2.10;99.90;;;;;;5018006;28;20025;-82
2022/02/26 06:31:52;;;;;;;26.33;12.38;;;1.70;99.90;;;;;;5024804;28;20164;-80
2022/02/26 06:34:18;;;;;;;27.60;14.35;;;1.70;99.90;;;;;;5000285;28;20128;-81
2022/02/26 06:36:43;;;;;;;29.60;14.95;;;1.60;99.90;;;;;;5022599;28;20037;-81
2022/02/26 06:39:09;;;;;;;31.05;13.48;;;1.60;99.90;;;;;;5006801;28;20030;-80
2022/02/26 06:41:35;;;;;;;40.38;16.25;;;3.40;99.90;;;;;;5024713;28;20415;-80
2022/02/26 06:44:01;;;;;;;33.05;14.10;;;1.60;99.90;;;;;;5010382;28;20033;-80
2022/02/26 06:46:27;;;;;;;32.42;13.55;;;1.50;99.90;;;;;;5007750;28;20047;-80
2022/02/26 06:48:53;;;;;;;23.80;12.98;;;1.50;99.90;;;;;;5010783;28;20058;-80
2022/02/26 06:51:19;;;;;;;26.92;13.27;;;1.50;99.90;;;;;;5024205;28;20022;-80
2022/02/26 06:53:44;;;;;;;26.63;13.18;;;1.50;99.90;;;;;;5023735;28;20026;-80
2022/02/26 06:56:10;;;;;;;23.88;12.70;;;1.50;99.90;;;;;;5023752;28;20053;-80
2022/02/26 06:58:36;;;;;;;22.92;12.38;;;1.50;99.90;;;;;;5024171;28;20064;-81
2022/02/26 07:01:01;;;;;;;23.63;11.63;;;2.90;99.90;;;;;;5002402;28;20033;-82
2022/02/26 07:03:27;;;;;;;23.85;11.95;;;1.60;99.90;;;;;;5023067;28;20026;-79
2022/02/26 07:05:52;;;;;;;26.50;12.55;;;4.30;99.90;;;;;;5024235;28;20041;-80
2022/02/26 07:08:18;;;;;;;28.65;12.95;;;1.50;99.90;;;;;;5023908;28;20029;-81
2022/02/26 07:10:44;;;;;;;24.08;11.48;;;1.50;99.90;;;;;;5024403;28;20116;-81
2022/02/26 07:13:09;;;;;;;22.63;12.48;;;1.40;99.90;;;;;;5007618;28;20052;-82
2022/02/26 07:15:36;;;;;;;23.60;11.95;;;1.40;99.90;;;;;;5024590;28;20537;-81
2022/02/26 07:18:02;;;;;;;28.48;12.85;;;1.50;99.90;;;;;;5000704;28;20037;-79
2022/02/26 07:20:28;;;;;;;23.65;12.55;;;1.70;99.90;;;;;;5006290;28;20030;-80
2022/02/26 07:22:53;;;;;;;22.48;11.77;;;1.50;99.90;;;;;;4990640;28;20034;-79
2022/02/26 07:25:19;;;;;;;29.55;13.95;;;1.60;99.90;;;;;;5022267;28;20160;-80
2022/02/26 07:27:45;;;;;;;27.15;12.75;;;2.40;99.90;;;;;;5008104;28;20029;-80
2022/02/26 07:30:11;;;;;;;23.70;12.30;;;1.60;99.90;;;;;;5023684;28;20044;-80
2022/02/26 07:32:37;;;;;;;23.13;12.13;;;1.70;99.90;;;;;;5006234;28;20033;-79
2022/02/26 07:35:04;;;;;;;26.85;12.77;;;1.70;99.90;;;;;;5021778;28;20132;-80
2022/02/26 07:37:30;;;;;;;23.65;11.85;;;1.80;99.90;;;;;;5017924;28;20537;-80
2022/02/26 07:39:55;;;;;;;23.52;11.50;;;1.80;99.90;;;;;;5005732;28;20053;-80
2022/02/26 07:42:21;;;;;;;26.77;12.70;;;2.70;99.90;;;;;;5001159;28;20022;-79
2022/02/26 07:44:47;;;;;;;24.92;12.35;;;1.90;99.90;;;;;;5002764;28;20091;-82
2022/02/26 07:47:12;;;;;;;23.83;11.77;;;1.90;99.90;;;;;;5002142;28;20022;-80
2022/02/26 07:49:38;;;;;;;23.33;12.40;;;2.00;99.90;;;;;;5015386;28;20041;-80
2022/02/26 07:52:04;;;;;;;22.27;12.27;;;2.00;99.90;;;;;;5006814;28;20036;-83
2022/02/26 07:54:30;;;;;;;22.60;12.10;;;2.00;99.90;;;;;;5003968;28;20035;-80
2022/02/26 07:56:55;;;;;;;27.05;13.38;;;2.10;99.90;;;;;;5008597;28;20026;-78
2022/02/26 07:59:21;;;;;;;23.85;12.32;;;2.10;99.90;;;;;;5026226;28;20041;-79
2022/02/26 08:01:46;;;;;;;24.27;12.00;;;2.10;99.90;;;;;;5024488;28;20037;-80
2022/02/26 08:04:12;;;;;;;23.58;11.65;;;2.20;99.90;;;;;;5004937;28;20068;-82
2022/02/26 08:06:38;;;;;;;24.58;11.90;;;2.20;99.90;;;;;;5004422;28;20446;-78
2022/02/26 08:09:03;;;;;;;23.00;11.90;;;2.30;99.90;;;;;;5020835;28;20222;-80
2022/02/26 08:11:30;;;;;;;23.17;12.35;;;2.40;99.90;;;;;;5021779;28;20025;-80
2022/02/26 08:13:59;;;;;;;25.48;11.95;;;2.50;99.90;;;;;;5004873;28;20026;-84
2022/02/26 08:16:25;;;;;;;20.85;11.10;;;2.60;99.90;;;;;;5028873;28;20095;-79
2022/02/26 08:18:52;;;;;;;23.45;12.00;;;2.70;99.90;;;;;;5022953;28;20109;-80
2022/02/26 08:21:20;;;;;;;21.50;11.20;;;2.80;99.90;;;;;;4988524;28;20026;-80
2022/02/26 08:23:47;;;;;;;27.48;11.00;;;2.90;99.90;;;;;;5004212;28;20499;-81
2022/02/26 08:26:12;;;;;;;18.60;10.63;;;3.00;99.90;;;;;;5003683;28;20388;-78
2022/02/26 08:28:38;;;;;;;22.85;11.35;;;3.20;99.90;;;;;;5005320;28;20018;-82
2022/02/26 08:31:03;;;;;;;19.92;11.07;;;3.30;99.90;;;;;;5002213;28;20022;-83
2022/02/26 08:33:29;;;;;;;19.13;9.85;;;3.50;99.90;;;;;;4991725;28;20026;-80
2022/02/26 08:35:55;;;;;;;21.80;10.77;;;3.40;99.90;;;;;;5013756;28;20060;-80
2022/02/26 08:38:20;;;;;;;22.27;11.25;;;3.50;99.90;;;;;;5005438;28;20029;-83
2022/02/26 08:40:46;;;;;;;21.40;10.98;;;3.60;99.90;;;;;;5003403;28;20053;-85
2022/02/26 08:43:11;;;;;;;19.65;11.10;;;3.60;99.90;;;;;;5022172;28;20026;-84
2022/02/26 08:45:37;;;;;;;23.88;10.82;;;3.70;99.90;;;;;;5005028;28;20437;-84
2022/02/26 08:48:03;;;;;;;18.98;11.02;;;3.90;99.90;;;;;;5003609;28;20022;-82
2022/02/26 08:50:28;;;;;;;22.48;11.55;;;4.00;99.90;;;;;;5001176;28;20042;-83
2022/02/26 08:52:54;;;;;;;21.23;11.25;;;4.10;99.90;;;;;;5021660;28;20093;-85
2022/02/26 08:55:20;;;;;;;22.48;11.43;;;4.10;99.90;;;;;;5020638;28;20026;-81
2022/02/26 08:57:45;;;;;;;20.27;11.45;;;4.10;99.90;;;;;;5021058;28;20045;-82
2022/02/26 09:00:12;;;;;;;19.60;9.95;;;4.20;99.90;;;;;;5005353;28;20033;-82
2022/02/26 09:02:38;;;;;;;35.28;13.25;;;4.30;99.90;;;;;;5004857;28;20022;-83
2022/02/26 09:05:04;;;;;;;42.17;12.95;;;4.50;99.90;;;;;;5002044;28;20558;-82
2022/02/26 09:07:30;;;;;;;38.92;12.13;;;4.50;99.90;;;;;;4994185;28;20022;-82
2022/02/26 09:09:55;;;;;;;22.42;10.27;;;4.50;99.90;;;;;;5003512;28;20033;-84
2022/02/26 09:12:21;;;;;;;27.60;9.50;;;4.50;99.90;;;;;;5018372;28;20422;-85
2022/02/26 09:14:47;;;;;;;43.40;10.77;;;4.60;99.90;;;;;;5000174;28;20042;-83
2022/02/26 09:17:12;;;;;;;29.92;8.02;;;6.50;99.90;;;;;;5021004;28;20030;-83
2022/02/26 09:19:38;;;;;;;17.98;6.68;;;7.80;99.90;;;;;;5010618;28;20080;-85
2022/02/26 09:22:04;;;;;;;15.70;5.60;;;5.10;99.90;;;;;;5007068;28;20029;-82
2022/02/26 09:24:34;;;;;;;15.48;5.65;;;5.10;99.90;;;;;;5003972;28;20084;-82
2022/02/26 09:26:59;;;;;;;14.85;4.80;;;5.10;99.90;;;;;;5020027;28;20106;-80
2022/02/26 09:29:26;;;;;;;18.13;5.38;;;5.10;99.90;;;;;;5020382;28;20037;-81
2022/02/26 09:31:52;;;;;;;26.42;6.88;;;5.10;99.90;;;;;;5026382;28;20025;-86
2022/02/26 09:34:19;;;;;;;33.97;7.43;;;5.20;99.90;;;;;;5002667;28;20080;-82
2022/02/26 09:36:46;;;;;;;30.88;8.07;;;5.20;99.90;;;;;;5002860;28;20034;-83
2022/02/26 09:39:13;;;;;;;47.10;7.53;;;5.20;99.90;;;;;;5016766;28;20038;-84
2022/02/26 09:41:39;;;;;;;24.38;5.45;;;5.30;99.90;;;;;;5016510;28;20036;-81
2022/02/26 09:44:06;;;;;;;17.17;5.05;;;5.30;99.90;;;;;;5001019;28;20022;-84
2022/02/26 09:46:31;;;;;;;10.80;2.70;;;5.50;99.90;;;;;;5002625;28;20033;-77
2022/02/26 09:48:57;;;;;;;15.73;3.85;;;5.80;99.90;;;;;;4999972;28;20044;-80
2022/02/26 09:51:23;;;;;;;11.98;2.42;;;6.00;99.90;;;;;;5022133;28;20025;-83
2022/02/26 09:53:50;;;;;;;36.97;8.43;;;6.10;99.90;;;;;;5018345;28;20022;-81
2022/02/26 09:56:16;;;;;;;13.32;2.95;;;6.00;99.90;;;;;;5000874;28;20034;-80
2022/02/26 09:58:42;;;;;;;16.10;3.70;;;6.00;99.90;;;;;;5019296;28;20100;-81
2022/02/26 10:01:07;;;;;;;44.33;10.15;;;6.10;99.90;;;;;;4985871;28;20041;-80
2022/02/26 10:03:35;;;;;;;20.85;5.35;;;6.30;99.90;;;;;;5001772;28;20455;-82
2022/02/26 10:06:11;;;;;;;18.50;3.50;;;6.50;99.90;;;;;;4996498;28;20026;-80
2022/02/26 10:08:48;;;;;;;19.17;4.05;;;6.50;99.90;;;;;;5000226;28;20092;-80
2022/02/26 10:11:27;;;;;;;30.50;6.10;;;6.30;99.90;;;;;;4991386;28;20038;-80
2022/02/26 10:14:05;;;;;;;20.33;3.75;;;6.80;99.90;;;;;;5017665;28;20064;-81
2022/02/26 10:16:46;;;;;;;50.55;7.55;;;6.20;99.90;;;;;;5005103;28;20487;-81
2022/02/26 10:19:18;;;;;;;34.00;4.18;;;6.30;99.90;;;;;;5002724;28;20061;-84
2022/02/26 10:21:44;;;;;;;17.65;3.17;;;6.40;99.90;;;;;;5021024;28;20029;-83
2022/02/26 10:24:12;;;;;;;15.05;2.78;;;6.80;99.90;;;;;;5020526;28;20025;-82
2022/02/26 10:26:38;;;;;;;12.45;2.92;;;6.70;99.90;;;;;;5002714;28;20018;-84
2022/02/26 10:29:08;;;;;;;10.45;3.15;;;6.90;99.90;;;;;;5021705;28;20015;-83
2022/02/26 10:31:48;;;;;;;10.70;2.90;;;7.20;99.90;;;;;;5002264;28;20022;-83
2022/02/26 10:34:35;;;;;;;11.32;2.40;;;7.20;99.90;;;;;;5013581;28;20053;-81
2022/02/26 10:37:12;;;;;;;20.13;3.22;;;7.30;99.00;;;;;;5018456;28;20025;-86
2022/02/26 10:39:44;;;;;;;17.40;2.78;;;7.20;99.90;;;;;;4998756;28;20030;-82
2022/02/26 10:42:17;;;;;;;12.32;3.47;;;7.30;99.90;;;;;;5002541;28;20026;-80
2022/02/26 10:44:43;;;;;;;11.10;2.20;;;7.20;99.90;;;;;;5010679;28;20061;-84
2022/02/26 10:47:12;;;;;;;14.05;2.53;;;7.00;99.70;;;;;;4998138;28;20080;-82
2022/02/26 10:49:46;;;;;;;9.73;2.40;;;8.30;99.90;;;;;;5019159;28;20041;-84
2022/02/26 10:52:14;;;;;;;13.75;2.33;;;6.90;99.60;;;;;;5001518;28;20037;-83
2022/02/26 10:54:40;;;;;;;7.80;1.90;;;8.40;99.90;;;;;;4991439;28;20033;-83
2022/02/26 10:57:11;;;;;;;10.93;2.25;;;6.80;99.90;;;;;;5019927;28;20026;-85
2022/02/26 10:59:45;;;;;;;12.65;2.58;;;6.90;99.30;;;;;;5002192;28;20030;-82
2022/02/26 11:02:18;;;;;;;8.50;2.28;;;6.80;98.90;;;;;;5013270;28;20057;-84
2022/02/26 11:04:44;;;;;;;10.15;2.00;;;6.90;99.50;;;;;;5009686;28;20107;-82
2022/02/26 11:07:10;;;;;;;10.73;2.38;;;6.90;99.80;;;;;;4996990;28;20022;-84
2022/02/26 11:09:39;;;;;;;15.98;2.67;;;6.80;99.50;;;;;;5014253;28;20022;-83
2022/02/26 11:12:06;;;;;;;13.40;2.20;;;7.00;99.30;;;;;;4999922;28;20097;-84
2022/02/26 11:14:35;;;;;;;13.02;2.08;;;7.10;98.20;;;;;;5001426;28;20022;-80
2022/02/26 11:17:03;;;;;;;10.43;2.97;;;7.20;98.50;;;;;;5003641;28;20045;-85
2022/02/26 11:19:30;;;;;;;11.43;1.85;;;7.30;98.80;;;;;;5018976;28;20026;-81
2022/02/26 11:21:58;;;;;;;9.95;3.03;;;7.20;98.60;;;;;;5014619;28;20064;-83
2022/02/26 11:24:23;;;;;;;13.25;2.92;;;7.40;97.60;;;;;;5018142;28;20022;-82
2022/02/26 11:26:50;;;;;;;6.65;2.10;;;7.40;97.80;;;;;;5001812;28;20022;-81
2022/02/26 11:29:19;;;;;;;10.73;1.92;;;7.30;97.20;;;;;;5014981;28;20022;-84
2022/02/26 11:32:06;;;;;;;10.80;1.95;;;7.20;96.50;;;;;;5011978;28;20068;-86
2022/02/26 11:34:35;;;;;;;10.07;2.25;;;7.20;97.20;;;;;;4994901;28;20022;-81
2022/02/26 11:37:09;;;;;;;7.43;1.88;;;7.30;97.50;;;;;;5017243;28;20536;-84
2022/02/26 11:39:36;;;;;;;12.68;2.03;;;7.40;95.50;;;;;;5019640;28;20046;-84
2022/02/26 11:42:24;;;;;;;8.82;2.30;;;7.50;95.70;;;;;;4999544;28;20042;-84
2022/02/26 11:45:10;;;;;;;11.00;2.10;;;7.80;95.10;;;;;;5011346;28;20026;-82
2022/02/26 11:47:35;;;;;;;10.55;2.22;;;7.80;95.10;;;;;;5016911;28;20018;-84
2022/02/26 11:50:12;;;;;;;11.88;2.88;;;7.70;95.20;;;;;;5004576;28;20029;-83
2022/02/26 11:52:47;;;;;;;9.95;2.20;;;7.70;95.60;;;;;;5019963;28;20030;-82
2022/02/26 11:55:25;;;;;;;12.32;2.53;;;8.00;94.20;;;;;;5004736;28;20121;-82
2022/02/26 11:57:52;;;;;;;9.90;2.92;;;7.90;94.50;;;;;;5015960;28;20037;-85
2022/02/26 12:00:22;;;;;;;13.15;2.20;;;7.90;94.80;;;;;;4985357;28;20138;-81
2022/02/26 12:03:17;;;;;;;7.18;1.65;;;7.80;94.00;;;;;;5012440;28;20105;-79
2022/02/26 12:05:43;;;;;;;8.93;2.15;;;7.90;93.40;;;;;;5017901;28;20026;-84
2022/02/26 12:08:10;;;;;;;9.30;2.65;;;7.90;93.10;;;;;;5017617;28;20034;-83
2022/02/26 12:10:36;;;;;;;8.88;1.73;;;7.80;93.60;;;;;;5015210;28;20022;-84
2022/02/26 12:13:21;;;;;;;15.95;3.42;;;7.80;93.00;;;;;;4999179;28;20029;-83
2022/02/26 12:15:47;;;;;;;12.77;1.83;;;7.90;93.90;;;;;;4992660;28;20026;-84
2022/02/26 12:18:13;;;;;;;8.05;1.60;;;8.20;92.70;;;;;;5013561;28;20022;-80
2022/02/26 12:20:39;;;;;;;8.32;2.35;;;8.00;91.90;;;;;;4999193;28;20372;-78
2022/02/26 12:23:12;;;;;;;11.55;2.30;;;8.10;91.40;;;;;;5010733;28;20030;-81
2022/02/26 12:25:39;;;;;;;6.68;1.70;;;8.90;92.00;;;;;;5017838;28;20054;-82
2022/02/26 12:28:14;;;;;;;11.40;2.10;;;8.20;91.10;;;;;;5016613;28;20395;-83
2022/02/26 12:31:08;;;;;;;8.57;2.10;;;8.20;91.40;;;;;;5019421;28;20034;-80
2022/02/26 12:33:48;;;;;;;8.25;1.60;;;8.00;91.00;;;;;;4992534;28;20288;-84
2022/02/26 12:36:15;;;;;;;9.13;2.22;;;8.10;90.30;;;;;;4994569;28;20030;-80
2022/02/26 12:38:49;;;;;;;6.53;1.77;;;8.20;90.60;;;;;;4993897;28;20033;-84
2022/02/26 12:41:35;;;;;;;12.70;2.05;;;8.20;89.60;;;;;;5011006;28;20018;-81
2022/02/26 12:44:04;;;;;;;8.05;1.67;;;8.30;90.30;;;;;;5017007;28;20084;-80
2022/02/26 12:46:31;;;;;;;9.57;2.30;;;8.40;90.00;;;;;;4995881;28;20034;-83
2022/02/26 12:49:00;;;;;;;5.90;1.65;;;8.40;88.30;;;;;;5015744;28;20040;-82